sensor_id;sensor_type;location;lat;lon;timestamp;P1;durP1;ratioP1;P2;durP2;ratioP2
22652;SDS011;11493;43.344;26.226;2023-05-14T00:01:27;6.40;;;3.25;;
22652;SDS011;11493;43.344;26.226;2023-05-14T00:03:54;6.35;;;3.10;;
22652;SDS011;11493;43.344;26.226;2023-05-14T00:06:21;6.75;;;3.25;;
22652;SDS011;11493;43.344;26.226;2023-05-14T00:08:48;4.32;;;3.60;;
22652;SDS011;11493;43.344;26.226;2023-05-14T00:11:15;4.18;;;3.58;;
22652;SDS011;11493;43.344;26.226;2023-05-14T00:13:42;5.68;;;3.80;;
22652;SDS011;11493;43.344;26.226;2023-05-14T00:16:09;6.55;;;2.90;;
22652;SDS011;11493;43.344;26.226;2023-05-14T00:18:37;7.20;;;3.30;;
22652;SDS011;11493;43.344;26.226;2023-05-14T00:21:04;5.80;;;3.60;;
22652;SDS011;11493;43.344;26.226;2023-05-14T00:23:31;4.18;;;3.10;;
22652;SDS011;11493;43.344;26.226;2023-05-14T00:25:58;6.07;;;3.22;;
22652;SDS011;11493;43.344;26.226;2023-05-14T00:28:25;3.72;;;3.42;;
22652;SDS011;11493;43.344;26.226;2023-05-14T00:30:52;3.97;;;3.58;;
22652;SDS011;11493;43.344;26.226;2023-05-14T00:33:19;4.05;;;3.28;;
22652;SDS011;11493;43.344;26.226;2023-05-14T00:35:46;3.47;;;3.17;;
22652;SDS011;11493;43.344;26.226;2023-05-14T00:38:13;4.20;;;3.45;;
22652;SDS011;11493;43.344;26.226;2023-05-14T00:40:44;3.97;;;2.78;;
22652;SDS011;11493;43.344;26.226;2023-05-14T00:43:17;5.10;;;3.33;;
22652;SDS011;11493;43.344;26.226;2023-05-14T00:45:45;5.43;;;3.40;;
22652;SDS011;11493;43.344;26.226;2023-05-14T00:48:13;6.85;;;3.70;;
22652;SDS011;11493;43.344;26.226;2023-05-14T00:50:40;4.88;;;3.10;;
22652;SDS011;11493;43.344;26.226;2023-05-14T00:53:08;4.95;;;3.10;;
22652;SDS011;11493;43.344;26.226;2023-05-14T00:55:39;5.20;;;2.90;;
22652;SDS011;11493;43.344;26.226;2023-05-14T00:58:11;4.88;;;3.38;;
22652;SDS011;11493;43.344;26.226;2023-05-14T01:00:39;7.40;;;3.10;;
22652;SDS011;11493;43.344;26.226;2023-05-14T01:03:07;7.15;;;3.05;;
22652;SDS011;11493;43.344;26.226;2023-05-14T01:05:39;3.58;;;2.90;;
22652;SDS011;11493;43.344;26.226;2023-05-14T01:11:14;6.38;;;3.00;;
22652;SDS011;11493;43.344;26.226;2023-05-14T01:16:43;3.88;;;3.47;;
22652;SDS011;11493;43.344;26.226;2023-05-14T01:19:21;4.45;;;3.10;;
22652;SDS011;11493;43.344;26.226;2023-05-14T01:21:52;3.60;;;3.30;;
22652;SDS011;11493;43.344;26.226;2023-05-14T01:24:19;5.07;;;3.40;;
22652;SDS011;11493;43.344;26.226;2023-05-14T01:26:46;3.35;;;3.05;;
22652;SDS011;11493;43.344;26.226;2023-05-14T01:29:22;3.33;;;3.03;;
22652;SDS011;11493;43.344;26.226;2023-05-14T01:31:54;4.40;;;3.03;;
22652;SDS011;11493;43.344;26.226;2023-05-14T01:34:24;3.17;;;2.88;;
22652;SDS011;11493;43.344;26.226;2023-05-14T01:36:54;3.22;;;2.90;;
22652;SDS011;11493;43.344;26.226;2023-05-14T01:39:22;3.80;;;3.30;;
22652;SDS011;11493;43.344;26.226;2023-05-14T01:41:52;3.67;;;3.22;;
22652;SDS011;11493;43.344;26.226;2023-05-14T01:44:20;8.55;;;3.30;;
22652;SDS011;11493;43.344;26.226;2023-05-14T01:46:47;3.70;;;3.30;;
22652;SDS011;11493;43.344;26.226;2023-05-14T01:49:14;5.60;;;4.03;;
22652;SDS011;11493;43.344;26.226;2023-05-14T01:51:44;6.60;;;3.13;;
22652;SDS011;11493;43.344;26.226;2023-05-14T01:54:11;10.50;;;3.63;;
22652;SDS011;11493;43.344;26.226;2023-05-14T01:56:38;3.80;;;3.38;;
22652;SDS011;11493;43.344;26.226;2023-05-14T01:59:05;5.82;;;3.42;;
22652;SDS011;11493;43.344;26.226;2023-05-14T02:01:32;3.70;;;3.40;;
22652;SDS011;11493;43.344;26.226;2023-05-14T02:03:59;4.60;;;3.15;;
22652;SDS011;11493;43.344;26.226;2023-05-14T02:06:26;3.97;;;3.53;;
22652;SDS011;11493;43.344;26.226;2023-05-14T02:08:54;7.07;;;3.42;;
22652;SDS011;11493;43.344;26.226;2023-05-14T02:11:21;5.40;;;3.55;;
22652;SDS011;11493;43.344;26.226;2023-05-14T02:13:48;6.88;;;3.30;;
22652;SDS011;11493;43.344;26.226;2023-05-14T02:16:15;4.72;;;2.88;;
22652;SDS011;11493;43.344;26.226;2023-05-14T02:18:42;6.47;;;3.63;;
22652;SDS011;11493;43.344;26.226;2023-05-14T02:21:09;4.93;;;3.60;;
22652;SDS011;11493;43.344;26.226;2023-05-14T02:23:36;4.65;;;3.95;;
22652;SDS011;11493;43.344;26.226;2023-05-14T02:26:08;5.30;;;3.53;;
22652;SDS011;11493;43.344;26.226;2023-05-14T02:28:36;3.90;;;3.25;;
22652;SDS011;11493;43.344;26.226;2023-05-14T02:31:03;4.55;;;3.70;;
22652;SDS011;11493;43.344;26.226;2023-05-14T02:33:30;6.35;;;4.30;;
22652;SDS011;11493;43.344;26.226;2023-05-14T02:35:57;4.15;;;3.75;;
22652;SDS011;11493;43.344;26.226;2023-05-14T02:38:24;4.38;;;3.83;;
22652;SDS011;11493;43.344;26.226;2023-05-14T02:40:54;4.93;;;3.90;;
22652;SDS011;11493;43.344;26.226;2023-05-14T02:43:21;5.00;;;3.95;;
22652;SDS011;11493;43.344;26.226;2023-05-14T02:45:48;4.65;;;4.20;;
22652;SDS011;11493;43.344;26.226;2023-05-14T02:48:15;4.18;;;3.63;;
22652;SDS011;11493;43.344;26.226;2023-05-14T02:50:42;11.02;;;3.80;;
22652;SDS011;11493;43.344;26.226;2023-05-14T02:53:09;4.55;;;4.03;;
22652;SDS011;11493;43.344;26.226;2023-05-14T02:55:37;4.88;;;3.92;;
22652;SDS011;11493;43.344;26.226;2023-05-14T02:58:04;8.32;;;3.78;;
22652;SDS011;11493;43.344;26.226;2023-05-14T03:00:31;6.88;;;3.97;;
22652;SDS011;11493;43.344;26.226;2023-05-14T03:02:58;4.72;;;3.55;;
22652;SDS011;11493;43.344;26.226;2023-05-14T03:05:26;4.03;;;3.10;;
22652;SDS011;11493;43.344;26.226;2023-05-14T03:07:53;4.80;;;4.03;;
22652;SDS011;11493;43.344;26.226;2023-05-14T03:10:20;4.68;;;3.35;;
22652;SDS011;11493;43.344;26.226;2023-05-14T03:12:47;6.30;;;3.70;;
22652;SDS011;11493;43.344;26.226;2023-05-14T03:15:14;6.43;;;3.38;;
22652;SDS011;11493;43.344;26.226;2023-05-14T03:17:41;4.95;;;4.15;;
22652;SDS011;11493;43.344;26.226;2023-05-14T03:20:09;4.68;;;4.20;;
22652;SDS011;11493;43.344;26.226;2023-05-14T03:22:36;6.97;;;3.47;;
22652;SDS011;11493;43.344;26.226;2023-05-14T03:25:03;6.38;;;3.35;;
22652;SDS011;11493;43.344;26.226;2023-05-14T03:27:31;6.10;;;4.05;;
22652;SDS011;11493;43.344;26.226;2023-05-14T03:29:59;6.78;;;3.85;;
22652;SDS011;11493;43.344;26.226;2023-05-14T03:32:26;7.03;;;3.33;;
22652;SDS011;11493;43.344;26.226;2023-05-14T03:34:53;3.35;;;3.05;;
22652;SDS011;11493;43.344;26.226;2023-05-14T03:37:20;6.00;;;3.60;;
22652;SDS011;11493;43.344;26.226;2023-05-14T03:39:47;4.75;;;3.33;;
22652;SDS011;11493;43.344;26.226;2023-05-14T03:42:14;7.13;;;3.13;;
22652;SDS011;11493;43.344;26.226;2023-05-14T03:44:41;5.85;;;2.97;;
22652;SDS011;11493;43.344;26.226;2023-05-14T03:47:08;4.97;;;3.60;;
22652;SDS011;11493;43.344;26.226;2023-05-14T03:49:35;3.83;;;3.53;;
22652;SDS011;11493;43.344;26.226;2023-05-14T03:52:02;4.93;;;4.50;;
22652;SDS011;11493;43.344;26.226;2023-05-14T03:54:30;7.90;;;4.53;;
22652;SDS011;11493;43.344;26.226;2023-05-14T03:56:58;5.15;;;4.50;;
22652;SDS011;11493;43.344;26.226;2023-05-14T03:59:25;11.82;;;4.13;;
22652;SDS011;11493;43.344;26.226;2023-05-14T04:01:52;5.13;;;4.32;;
22652;SDS011;11493;43.344;26.226;2023-05-14T04:04:19;6.85;;;4.25;;
22652;SDS011;11493;43.344;26.226;2023-05-14T04:06:46;10.27;;;4.93;;
22652;SDS011;11493;43.344;26.226;2023-05-14T04:09:13;8.65;;;3.78;;
22652;SDS011;11493;43.344;26.226;2023-05-14T04:11:40;4.25;;;3.83;;
22652;SDS011;11493;43.344;26.226;2023-05-14T04:14:07;6.95;;;3.38;;
22652;SDS011;11493;43.344;26.226;2023-05-14T04:16:34;3.85;;;3.45;;
22652;SDS011;11493;43.344;26.226;2023-05-14T04:19:01;9.05;;;3.92;;
22652;SDS011;11493;43.344;26.226;2023-05-14T04:21:32;5.87;;;4.00;;
22652;SDS011;11493;43.344;26.226;2023-05-14T04:23:59;4.10;;;3.70;;
22652;SDS011;11493;43.344;26.226;2023-05-14T04:26:25;5.47;;;3.50;;
22652;SDS011;11493;43.344;26.226;2023-05-14T04:28:52;4.97;;;3.45;;
22652;SDS011;11493;43.344;26.226;2023-05-14T04:31:19;5.35;;;3.65;;
22652;SDS011;11493;43.344;26.226;2023-05-14T04:33:46;3.92;;;3.63;;
22652;SDS011;11493;43.344;26.226;2023-05-14T04:36:13;10.48;;;7.45;;
22652;SDS011;11493;43.344;26.226;2023-05-14T04:38:41;6.55;;;5.85;;
22652;SDS011;11493;43.344;26.226;2023-05-14T04:41:08;7.55;;;6.78;;
22652;SDS011;11493;43.344;26.226;2023-05-14T04:43:35;10.15;;;6.65;;
22652;SDS011;11493;43.344;26.226;2023-05-14T04:46:02;6.45;;;5.75;;
22652;SDS011;11493;43.344;26.226;2023-05-14T04:48:29;9.45;;;7.60;;
22652;SDS011;11493;43.344;26.226;2023-05-14T04:50:56;12.48;;;8.45;;
22652;SDS011;11493;43.344;26.226;2023-05-14T04:53:23;9.98;;;6.20;;
22652;SDS011;11493;43.344;26.226;2023-05-14T04:55:50;11.57;;;6.05;;
22652;SDS011;11493;43.344;26.226;2023-05-14T04:58:17;12.30;;;6.07;;
22652;SDS011;11493;43.344;26.226;2023-05-14T05:00:44;7.88;;;6.20;;
22652;SDS011;11493;43.344;26.226;2023-05-14T05:03:11;7.28;;;6.00;;
22652;SDS011;11493;43.344;26.226;2023-05-14T05:05:39;8.05;;;5.97;;
22652;SDS011;11493;43.344;26.226;2023-05-14T05:08:06;7.82;;;4.97;;
22652;SDS011;11493;43.344;26.226;2023-05-14T05:10:33;9.50;;;4.88;;
22652;SDS011;11493;43.344;26.226;2023-05-14T05:13:01;9.43;;;4.82;;
22652;SDS011;11493;43.344;26.226;2023-05-14T05:15:28;5.90;;;3.75;;
22652;SDS011;11493;43.344;26.226;2023-05-14T05:17:55;6.32;;;3.35;;
22652;SDS011;11493;43.344;26.226;2023-05-14T05:20:22;3.95;;;2.25;;
22652;SDS011;11493;43.344;26.226;2023-05-14T05:22:50;4.63;;;2.72;;
22652;SDS011;11493;43.344;26.226;2023-05-14T05:25:17;2.55;;;1.90;;
22652;SDS011;11493;43.344;26.226;2023-05-14T05:27:44;2.92;;;2.00;;
22652;SDS011;11493;43.344;26.226;2023-05-14T05:30:11;3.47;;;2.08;;
22652;SDS011;11493;43.344;26.226;2023-05-14T05:32:38;2.90;;;2.13;;
22652;SDS011;11493;43.344;26.226;2023-05-14T05:35:06;2.85;;;1.95;;
22652;SDS011;11493;43.344;26.226;2023-05-14T05:37:33;11.25;;;2.50;;
22652;SDS011;11493;43.344;26.226;2023-05-14T05:40:00;5.55;;;2.20;;
22652;SDS011;11493;43.344;26.226;2023-05-14T05:42:27;3.45;;;2.55;;
22652;SDS011;11493;43.344;26.226;2023-05-14T05:44:54;2.83;;;2.13;;
22652;SDS011;11493;43.344;26.226;2023-05-14T05:47:21;5.38;;;2.22;;
22652;SDS011;11493;43.344;26.226;2023-05-14T05:49:48;4.32;;;2.20;;
22652;SDS011;11493;43.344;26.226;2023-05-14T05:52:15;6.38;;;2.58;;
22652;SDS011;11493;43.344;26.226;2023-05-14T05:54:42;2.67;;;1.92;;
22652;SDS011;11493;43.344;26.226;2023-05-14T05:57:09;4.40;;;1.73;;
22652;SDS011;11493;43.344;26.226;2023-05-14T05:59:36;4.05;;;1.92;;
22652;SDS011;11493;43.344;26.226;2023-05-14T06:02:04;5.22;;;2.17;;
22652;SDS011;11493;43.344;26.226;2023-05-14T06:04:31;3.47;;;2.25;;
22652;SDS011;11493;43.344;26.226;2023-05-14T06:06:58;3.08;;;2.30;;
22652;SDS011;11493;43.344;26.226;2023-05-14T06:09:25;3.97;;;3.38;;
22652;SDS011;11493;43.344;26.226;2023-05-14T06:11:52;5.88;;;3.83;;
22652;SDS011;11493;43.344;26.226;2023-05-14T06:14:19;4.82;;;3.85;;
22652;SDS011;11493;43.344;26.226;2023-05-14T06:16:46;5.72;;;2.47;;
22652;SDS011;11493;43.344;26.226;2023-05-14T06:19:13;7.63;;;2.85;;
22652;SDS011;11493;43.344;26.226;2023-05-14T06:21:40;10.00;;;5.22;;
22652;SDS011;11493;43.344;26.226;2023-05-14T06:24:07;8.95;;;4.47;;
22652;SDS011;11493;43.344;26.226;2023-05-14T06:26:34;12.73;;;6.68;;
22652;SDS011;11493;43.344;26.226;2023-05-14T06:29:01;5.80;;;3.40;;
22652;SDS011;11493;43.344;26.226;2023-05-14T06:31:28;7.85;;;5.68;;
22652;SDS011;11493;43.344;26.226;2023-05-14T06:33:55;5.10;;;3.55;;
22652;SDS011;11493;43.344;26.226;2023-05-14T06:36:22;5.55;;;2.47;;
22652;SDS011;11493;43.344;26.226;2023-05-14T06:38:49;3.13;;;2.30;;
22652;SDS011;11493;43.344;26.226;2023-05-14T06:41:16;6.90;;;2.30;;
22652;SDS011;11493;43.344;26.226;2023-05-14T06:43:43;2.15;;;1.95;;
22652;SDS011;11493;43.344;26.226;2023-05-14T06:46:10;5.68;;;1.80;;
22652;SDS011;11493;43.344;26.226;2023-05-14T06:48:37;6.20;;;2.33;;
22652;SDS011;11493;43.344;26.226;2023-05-14T06:51:04;2.85;;;2.13;;
22652;SDS011;11493;43.344;26.226;2023-05-14T06:53:32;6.75;;;2.28;;
22652;SDS011;11493;43.344;26.226;2023-05-14T06:55:59;4.20;;;2.08;;
22652;SDS011;11493;43.344;26.226;2023-05-14T06:58:26;6.50;;;2.25;;
22652;SDS011;11493;43.344;26.226;2023-05-14T07:00:53;4.00;;;1.70;;
22652;SDS011;11493;43.344;26.226;2023-05-14T07:03:20;14.95;;;1.67;;
22652;SDS011;11493;43.344;26.226;2023-05-14T07:05:47;3.15;;;1.50;;
22652;SDS011;11493;43.344;26.226;2023-05-14T07:08:14;3.70;;;1.42;;
22652;SDS011;11493;43.344;26.226;2023-05-14T07:10:41;1.73;;;1.17;;
22652;SDS011;11493;43.344;26.226;2023-05-14T07:13:08;5.65;;;1.60;;
22652;SDS011;11493;43.344;26.226;2023-05-14T07:15:35;2.85;;;1.58;;
22652;SDS011;11493;43.344;26.226;2023-05-14T07:18:02;6.05;;;1.40;;
22652;SDS011;11493;43.344;26.226;2023-05-14T07:20:29;5.35;;;1.60;;
22652;SDS011;11493;43.344;26.226;2023-05-14T07:22:56;7.32;;;1.40;;
22652;SDS011;11493;43.344;26.226;2023-05-14T07:25:23;4.75;;;1.35;;
22652;SDS011;11493;43.344;26.226;2023-05-14T07:27:50;8.88;;;1.40;;
22652;SDS011;11493;43.344;26.226;2023-05-14T07:30:18;2.42;;;1.38;;
22652;SDS011;11493;43.344;26.226;2023-05-14T07:32:45;4.50;;;1.40;;
22652;SDS011;11493;43.344;26.226;2023-05-14T07:35:12;5.47;;;1.45;;
22652;SDS011;11493;43.344;26.226;2023-05-14T07:37:39;6.88;;;1.90;;
22652;SDS011;11493;43.344;26.226;2023-05-14T07:40:06;2.03;;;1.60;;
22652;SDS011;11493;43.344;26.226;2023-05-14T07:42:34;4.70;;;1.70;;
22652;SDS011;11493;43.344;26.226;2023-05-14T07:45:03;14.00;;;2.42;;
22652;SDS011;11493;43.344;26.226;2023-05-14T07:47:31;8.50;;;1.60;;
22652;SDS011;11493;43.344;26.226;2023-05-14T07:49:58;1.67;;;1.33;;
22652;SDS011;11493;43.344;26.226;2023-05-14T07:52:25;5.05;;;1.50;;
22652;SDS011;11493;43.344;26.226;2023-05-14T07:54:52;7.13;;;1.50;;
22652;SDS011;11493;43.344;26.226;2023-05-14T07:57:20;4.25;;;1.23;;
22652;SDS011;11493;43.344;26.226;2023-05-14T07:59:48;3.72;;;1.40;;
22652;SDS011;11493;43.344;26.226;2023-05-14T08:02:15;7.38;;;1.50;;
22652;SDS011;11493;43.344;26.226;2023-05-14T08:04:43;1.65;;;1.30;;
22652;SDS011;11493;43.344;26.226;2023-05-14T08:07:10;1.25;;;1.13;;
22652;SDS011;11493;43.344;26.226;2023-05-14T08:09:37;16.73;;;2.10;;
22652;SDS011;11493;43.344;26.226;2023-05-14T08:12:04;2.95;;;2.53;;
22652;SDS011;11493;43.344;26.226;2023-05-14T08:14:32;4.63;;;1.60;;
22652;SDS011;11493;43.344;26.226;2023-05-14T08:16:59;2.72;;;1.50;;
22652;SDS011;11493;43.344;26.226;2023-05-14T08:19:26;1.90;;;1.33;;
22652;SDS011;11493;43.344;26.226;2023-05-14T08:21:53;56.00;;;3.38;;
22652;SDS011;11493;43.344;26.226;2023-05-14T08:24:20;4.03;;;1.40;;
22652;SDS011;11493;43.344;26.226;2023-05-14T08:26:47;1.90;;;1.20;;
22652;SDS011;11493;43.344;26.226;2023-05-14T08:29:14;1.73;;;1.30;;
22652;SDS011;11493;43.344;26.226;2023-05-14T08:31:42;8.93;;;1.60;;
22652;SDS011;11493;43.344;26.226;2023-05-14T08:34:09;3.72;;;1.33;;
22652;SDS011;11493;43.344;26.226;2023-05-14T08:36:37;7.53;;;1.23;;
22652;SDS011;11493;43.344;26.226;2023-05-14T08:39:04;6.22;;;1.48;;
22652;SDS011;11493;43.344;26.226;2023-05-14T08:41:33;5.38;;;1.50;;
22652;SDS011;11493;43.344;26.226;2023-05-14T08:46:31;5.63;;;1.88;;
22652;SDS011;11493;43.344;26.226;2023-05-14T08:49:00;1.50;;;1.20;;
22652;SDS011;11493;43.344;26.226;2023-05-14T08:51:34;3.25;;;1.60;;
22652;SDS011;11493;43.344;26.226;2023-05-14T08:54:01;1.92;;;1.50;;
22652;SDS011;11493;43.344;26.226;2023-05-14T08:56:30;4.43;;;1.40;;
22652;SDS011;11493;43.344;26.226;2023-05-14T08:58:58;4.15;;;1.40;;
22652;SDS011;11493;43.344;26.226;2023-05-14T09:01:26;3.80;;;1.42;;
22652;SDS011;11493;43.344;26.226;2023-05-14T09:03:54;8.40;;;2.08;;
22652;SDS011;11493;43.344;26.226;2023-05-14T09:06:50;6.60;;;1.52;;
22652;SDS011;11493;43.344;26.226;2023-05-14T09:09:19;1.52;;;1.30;;
22652;SDS011;11493;43.344;26.226;2023-05-14T09:12:12;5.88;;;1.58;;
22652;SDS011;11493;43.344;26.226;2023-05-14T09:14:40;3.83;;;1.50;;
22652;SDS011;11493;43.344;26.226;2023-05-14T09:17:07;5.10;;;1.48;;
22652;SDS011;11493;43.344;26.226;2023-05-14T09:19:34;3.88;;;1.40;;
22652;SDS011;11493;43.344;26.226;2023-05-14T09:22:01;3.45;;;1.38;;
22652;SDS011;11493;43.344;26.226;2023-05-14T09:24:34;7.72;;;1.80;;
22652;SDS011;11493;43.344;26.226;2023-05-14T09:27:01;3.00;;;1.40;;
22652;SDS011;11493;43.344;26.226;2023-05-14T09:29:29;1.75;;;1.38;;
22652;SDS011;11493;43.344;26.226;2023-05-14T09:31:57;2.15;;;1.70;;
22652;SDS011;11493;43.344;26.226;2023-05-14T09:34:26;4.80;;;1.70;;
22652;SDS011;11493;43.344;26.226;2023-05-14T09:36:58;8.77;;;1.40;;
22652;SDS011;11493;43.344;26.226;2023-05-14T09:39:27;1.83;;;1.40;;
22652;SDS011;11493;43.344;26.226;2023-05-14T09:41:54;4.38;;;1.50;;
22652;SDS011;11493;43.344;26.226;2023-05-14T09:44:22;2.92;;;1.90;;
22652;SDS011;11493;43.344;26.226;2023-05-14T09:46:50;3.60;;;1.30;;
22652;SDS011;11493;43.344;26.226;2023-05-14T09:49:18;2.30;;;1.50;;
22652;SDS011;11493;43.344;26.226;2023-05-14T09:51:45;6.22;;;1.63;;
22652;SDS011;11493;43.344;26.226;2023-05-14T09:54:14;6.80;;;2.00;;
22652;SDS011;11493;43.344;26.226;2023-05-14T09:56:42;3.83;;;1.30;;
22652;SDS011;11493;43.344;26.226;2023-05-14T09:59:09;8.05;;;1.42;;
22652;SDS011;11493;43.344;26.226;2023-05-14T10:01:37;1.63;;;1.35;;
22652;SDS011;11493;43.344;26.226;2023-05-14T10:04:05;3.28;;;1.10;;
22652;SDS011;11493;43.344;26.226;2023-05-14T10:06:35;4.28;;;2.50;;
22652;SDS011;11493;43.344;26.226;2023-05-14T10:09:04;4.43;;;2.85;;
22652;SDS011;11493;43.344;26.226;2023-05-14T10:11:36;3.25;;;2.10;;
22652;SDS011;11493;43.344;26.226;2023-05-14T10:16:47;5.50;;;1.50;;
22652;SDS011;11493;43.344;26.226;2023-05-14T10:19:16;9.68;;;2.38;;
22652;SDS011;11493;43.344;26.226;2023-05-14T10:21:56;4.53;;;1.60;;
22652;SDS011;11493;43.344;26.226;2023-05-14T10:24:29;7.35;;;2.58;;
22652;SDS011;11493;43.344;26.226;2023-05-14T10:26:57;4.85;;;2.10;;
22652;SDS011;11493;43.344;26.226;2023-05-14T10:29:34;10.50;;;2.63;;
22652;SDS011;11493;43.344;26.226;2023-05-14T10:32:04;2.15;;;1.38;;
22652;SDS011;11493;43.344;26.226;2023-05-14T10:34:33;5.10;;;1.48;;
22652;SDS011;11493;43.344;26.226;2023-05-14T10:37:07;2.38;;;1.30;;
22652;SDS011;11493;43.344;26.226;2023-05-14T10:39:50;1.33;;;1.20;;
22652;SDS011;11493;43.344;26.226;2023-05-14T10:42:35;4.30;;;1.30;;
22652;SDS011;11493;43.344;26.226;2023-05-14T10:45:13;2.60;;;1.42;;
22652;SDS011;11493;43.344;26.226;2023-05-14T10:47:52;2.33;;;1.58;;
22652;SDS011;11493;43.344;26.226;2023-05-14T10:50:19;2.40;;;1.30;;
22652;SDS011;11493;43.344;26.226;2023-05-14T10:56:57;2.88;;;1.40;;
22652;SDS011;11493;43.344;26.226;2023-05-14T10:59:27;3.80;;;1.27;;
22652;SDS011;11493;43.344;26.226;2023-05-14T11:01:57;4.45;;;1.55;;
22652;SDS011;11493;43.344;26.226;2023-05-14T11:04:26;7.60;;;2.10;;
22652;SDS011;11493;43.344;26.226;2023-05-14T11:06:56;2.35;;;1.40;;
22652;SDS011;11493;43.344;26.226;2023-05-14T11:09:25;3.97;;;1.35;;
22652;SDS011;11493;43.344;26.226;2023-05-14T11:11:52;1.48;;;1.38;;
22652;SDS011;11493;43.344;26.226;2023-05-14T11:14:20;3.85;;;1.40;;
22652;SDS011;11493;43.344;26.226;2023-05-14T11:16:48;3.38;;;1.25;;
22652;SDS011;11493;43.344;26.226;2023-05-14T11:19:15;5.40;;;1.70;;
22652;SDS011;11493;43.344;26.226;2023-05-14T11:24:14;2.97;;;1.45;;
22652;SDS011;11493;43.344;26.226;2023-05-14T11:26:41;8.80;;;1.38;;
22652;SDS011;11493;43.344;26.226;2023-05-14T11:29:08;3.53;;;1.55;;
22652;SDS011;11493;43.344;26.226;2023-05-14T11:31:36;2.00;;;1.40;;
22652;SDS011;11493;43.344;26.226;2023-05-14T11:34:03;3.00;;;1.40;;
22652;SDS011;11493;43.344;26.226;2023-05-14T11:36:34;4.03;;;1.17;;
22652;SDS011;11493;43.344;26.226;2023-05-14T11:39:02;4.15;;;1.45;;
22652;SDS011;11493;43.344;26.226;2023-05-14T11:41:29;4.15;;;1.25;;
22652;SDS011;11493;43.344;26.226;2023-05-14T11:43:56;4.53;;;1.20;;
22652;SDS011;11493;43.344;26.226;2023-05-14T11:46:24;8.05;;;1.50;;
22652;SDS011;11493;43.344;26.226;2023-05-14T11:48:51;2.13;;;1.70;;
22652;SDS011;11493;43.344;26.226;2023-05-14T11:51:18;13.52;;;6.28;;
22652;SDS011;11493;43.344;26.226;2023-05-14T11:53:46;2.10;;;1.38;;
22652;SDS011;11493;43.344;26.226;2023-05-14T11:56:14;4.88;;;4.18;;
22652;SDS011;11493;43.344;26.226;2023-05-14T11:58:46;2.60;;;1.40;;
22652;SDS011;11493;43.344;26.226;2023-05-14T12:01:13;1.42;;;1.30;;
22652;SDS011;11493;43.344;26.226;2023-05-14T12:03:41;3.67;;;1.27;;
22652;SDS011;11493;43.344;26.226;2023-05-14T12:06:08;4.55;;;1.45;;
22652;SDS011;11493;43.344;26.226;2023-05-14T12:08:35;4.75;;;1.20;;
22652;SDS011;11493;43.344;26.226;2023-05-14T12:11:03;1.80;;;1.05;;
22652;SDS011;11493;43.344;26.226;2023-05-14T12:13:30;2.70;;;1.15;;
22652;SDS011;11493;43.344;26.226;2023-05-14T12:15:58;2.80;;;1.17;;
22652;SDS011;11493;43.344;26.226;2023-05-14T12:18:28;4.03;;;0.98;;
22652;SDS011;11493;43.344;26.226;2023-05-14T12:21:03;12.07;;;1.70;;
22652;SDS011;11493;43.344;26.226;2023-05-14T12:23:33;3.22;;;1.17;;
22652;SDS011;11493;43.344;26.226;2023-05-14T12:26:01;5.40;;;1.30;;
22652;SDS011;11493;43.344;26.226;2023-05-14T12:28:32;3.40;;;1.15;;
22652;SDS011;11493;43.344;26.226;2023-05-14T12:33:30;4.28;;;1.80;;
22652;SDS011;11493;43.344;26.226;2023-05-14T12:35:57;1.95;;;1.23;;
22652;SDS011;11493;43.344;26.226;2023-05-14T12:38:46;5.07;;;1.20;;
22652;SDS011;11493;43.344;26.226;2023-05-14T12:41:13;5.45;;;1.40;;
22652;SDS011;11493;43.344;26.226;2023-05-14T12:43:41;3.50;;;1.25;;
22652;SDS011;11493;43.344;26.226;2023-05-14T12:46:09;1.10;;;1.00;;
22652;SDS011;11493;43.344;26.226;2023-05-14T12:48:36;5.68;;;1.30;;
22652;SDS011;11493;43.344;26.226;2023-05-14T12:51:03;1.70;;;1.00;;
22652;SDS011;11493;43.344;26.226;2023-05-14T12:53:30;3.13;;;1.23;;
22652;SDS011;11493;43.344;26.226;2023-05-14T12:55:57;2.88;;;1.50;;
22652;SDS011;11493;43.344;26.226;2023-05-14T12:58:24;3.90;;;1.00;;
22652;SDS011;11493;43.344;26.226;2023-05-14T13:00:52;2.83;;;1.10;;
22652;SDS011;11493;43.344;26.226;2023-05-14T13:03:19;1.33;;;1.00;;
22652;SDS011;11493;43.344;26.226;2023-05-14T13:05:46;3.20;;;1.02;;
22652;SDS011;11493;43.344;26.226;2023-05-14T13:08:13;5.90;;;1.42;;
22652;SDS011;11493;43.344;26.226;2023-05-14T13:10:43;4.53;;;1.20;;
22652;SDS011;11493;43.344;26.226;2023-05-14T13:13:10;4.88;;;1.35;;
22652;SDS011;11493;43.344;26.226;2023-05-14T13:15:37;1.50;;;1.25;;
22652;SDS011;11493;43.344;26.226;2023-05-14T13:18:04;5.25;;;1.08;;
22652;SDS011;11493;43.344;26.226;2023-05-14T13:20:32;10.98;;;1.00;;
22652;SDS011;11493;43.344;26.226;2023-05-14T13:22:59;3.85;;;1.10;;
22652;SDS011;11493;43.344;26.226;2023-05-14T13:25:26;3.85;;;1.00;;
22652;SDS011;11493;43.344;26.226;2023-05-14T13:27:54;3.45;;;1.00;;
22652;SDS011;11493;43.344;26.226;2023-05-14T13:30:21;6.00;;;1.33;;
22652;SDS011;11493;43.344;26.226;2023-05-14T13:32:48;1.90;;;0.98;;
22652;SDS011;11493;43.344;26.226;2023-05-14T13:35:15;1.25;;;1.00;;
22652;SDS011;11493;43.344;26.226;2023-05-14T13:37:42;3.28;;;1.08;;
22652;SDS011;11493;43.344;26.226;2023-05-14T13:40:09;2.78;;;1.05;;
22652;SDS011;11493;43.344;26.226;2023-05-14T13:42:37;5.07;;;0.95;;
22652;SDS011;11493;43.344;26.226;2023-05-14T13:45:05;8.48;;;1.25;;
22652;SDS011;11493;43.344;26.226;2023-05-14T13:47:32;2.60;;;1.00;;
22652;SDS011;11493;43.344;26.226;2023-05-14T13:49:59;1.05;;;0.95;;
22652;SDS011;11493;43.344;26.226;2023-05-14T13:52:26;1.63;;;1.10;;
22652;SDS011;11493;43.344;26.226;2023-05-14T13:54:54;1.77;;;1.20;;
22652;SDS011;11493;43.344;26.226;2023-05-14T13:57:21;2.05;;;1.30;;
22652;SDS011;11493;43.344;26.226;2023-05-14T13:59:49;2.08;;;1.17;;
22652;SDS011;11493;43.344;26.226;2023-05-14T14:02:16;3.10;;;1.00;;
22652;SDS011;11493;43.344;26.226;2023-05-14T14:04:43;1.80;;;1.50;;
22652;SDS011;11493;43.344;26.226;2023-05-14T14:07:10;2.25;;;1.40;;
22652;SDS011;11493;43.344;26.226;2023-05-14T14:09:37;1.58;;;0.88;;
22652;SDS011;11493;43.344;26.226;2023-05-14T14:12:04;1.83;;;1.05;;
22652;SDS011;11493;43.344;26.226;2023-05-14T14:14:32;1.10;;;0.93;;
22652;SDS011;11493;43.344;26.226;2023-05-14T14:16:59;2.67;;;1.17;;
22652;SDS011;11493;43.344;26.226;2023-05-14T14:19:26;2.83;;;1.08;;
22652;SDS011;11493;43.344;26.226;2023-05-14T14:21:53;1.33;;;1.00;;
22652;SDS011;11493;43.344;26.226;2023-05-14T14:24:20;1.27;;;0.98;;
22652;SDS011;11493;43.344;26.226;2023-05-14T14:26:47;1.00;;;0.90;;
22652;SDS011;11493;43.344;26.226;2023-05-14T14:29:14;2.13;;;1.10;;
22652;SDS011;11493;43.344;26.226;2023-05-14T14:31:40;2.65;;;1.00;;
22652;SDS011;11493;43.344;26.226;2023-05-14T14:34:09;1.92;;;1.20;;
22652;SDS011;11493;43.344;26.226;2023-05-14T14:36:36;4.20;;;1.20;;
22652;SDS011;11493;43.344;26.226;2023-05-14T14:39:03;1.48;;;0.95;;
22652;SDS011;11493;43.344;26.226;2023-05-14T14:41:30;4.57;;;1.10;;
22652;SDS011;11493;43.344;26.226;2023-05-14T14:43:57;14.82;;;1.15;;
22652;SDS011;11493;43.344;26.226;2023-05-14T14:46:24;1.60;;;1.00;;
22652;SDS011;11493;43.344;26.226;2023-05-14T14:48:51;2.25;;;1.00;;
22652;SDS011;11493;43.344;26.226;2023-05-14T14:51:18;2.03;;;1.00;;
22652;SDS011;11493;43.344;26.226;2023-05-14T14:53:46;2.40;;;1.05;;
22652;SDS011;11493;43.344;26.226;2023-05-14T14:56:13;4.03;;;1.20;;
22652;SDS011;11493;43.344;26.226;2023-05-14T14:58:40;1.20;;;0.85;;